sensor_id;sensor_type;location;lat;lon;timestamp;P1;durP1;ratioP1;P2;durP2;ratioP2
84778;SDS011;75010;50.866;20.620;2024-01-11T00:00:20;92;;;72;;
84778;SDS011;75010;50.866;20.620;2024-01-11T00:10:10;92;;;72;;
84778;SDS011;75010;50.866;20.620;2024-01-11T00:20:12;93;;;77;;
84778;SDS011;75010;50.866;20.620;2024-01-11T00:30:07;96;;;79;;
84778;SDS011;75010;50.866;20.620;2024-01-11T00:40:03;98;;;83;;
84778;SDS011;75010;50.866;20.620;2024-01-11T00:50:17;98;;;78;;
84778;SDS011;75010;50.866;20.620;2024-01-11T01:00:19;100;;;81;;
84778;SDS011;75010;50.866;20.620;2024-01-11T01:10:10;100;;;81;;
84778;SDS011;75010;50.866;20.620;2024-01-11T01:20:19;101;;;81;;
84778;SDS011;75010;50.866;20.620;2024-01-11T01:30:17;107;;;87;;
84778;SDS011;75010;50.866;20.620;2024-01-11T01:40:05;99;;;84;;
84778;SDS011;75010;50.866;20.620;2024-01-11T01:50:11;98;;;83;;
84778;SDS011;75010;50.866;20.620;2024-01-11T02:00:18;98;;;83;;
84778;SDS011;75010;50.866;20.620;2024-01-11T02:10:18;100;;;82;;
84778;SDS011;75010;50.866;20.620;2024-01-11T02:20:19;101;;;82;;
84778;SDS011;75010;50.866;20.620;2024-01-11T02:30:22;99;;;83;;
84778;SDS011;75010;50.866;20.620;2024-01-11T02:40:14;99;;;83;;
84778;SDS011;75010;50.866;20.620;2024-01-11T02:50:14;101;;;83;;
84778;SDS011;75010;50.866;20.620;2024-01-11T03:00:06;101;;;83;;
84778;SDS011;75010;50.866;20.620;2024-01-11T03:10:15;110;;;94;;
84778;SDS011;75010;50.866;20.620;2024-01-11T03:20:03;100;;;83;;
84778;SDS011;75010;50.866;20.620;2024-01-11T03:30:03;105;;;86;;
84778;SDS011;75010;50.866;20.620;2024-01-11T03:40:13;99;;;84;;
84778;SDS011;75010;50.866;20.620;2024-01-11T03:50:19;98;;;84;;
84778;SDS011;75010;50.866;20.620;2024-01-11T04:00:10;94;;;75;;
84778;SDS011;75010;50.866;20.620;2024-01-11T04:10:29;94;;;75;;
84778;SDS011;75010;50.866;20.620;2024-01-11T04:20:20;94;;;70;;
84778;SDS011;75010;50.866;20.620;2024-01-11T04:30:02;89;;;67;;
84778;SDS011;75010;50.866;20.620;2024-01-11T04:40:17;91;;;68;;
84778;SDS011;75010;50.866;20.620;2024-01-11T04:50:08;93;;;71;;
84778;SDS011;75010;50.866;20.620;2024-01-11T05:00:14;93;;;71;;
84778;SDS011;75010;50.866;20.620;2024-01-11T05:10:05;85;;;64;;
84778;SDS011;75010;50.866;20.620;2024-01-11T05:20:13;85;;;66;;
84778;SDS011;75010;50.866;20.620;2024-01-11T05:30:02;80;;;61;;
84778;SDS011;75010;50.866;20.620;2024-01-11T05:40:09;84;;;65;;
84778;SDS011;75010;50.866;20.620;2024-01-11T05:50:11;81;;;64;;
84778;SDS011;75010;50.866;20.620;2024-01-11T06:00:13;81;;;64;;
84778;SDS011;75010;50.866;20.620;2024-01-11T06:10:02;84;;;63;;
84778;SDS011;75010;50.866;20.620;2024-01-11T06:20:13;93;;;68;;
84778;SDS011;75010;50.866;20.620;2024-01-11T06:30:12;89;;;68;;
84778;SDS011;75010;50.866;20.620;2024-01-11T06:40:09;91;;;69;;
84778;SDS011;75010;50.866;20.620;2024-01-11T06:50:09;85;;;66;;
84778;SDS011;75010;50.866;20.620;2024-01-11T07:00:11;85;;;66;;
84778;SDS011;75010;50.866;20.620;2024-01-11T07:10:20;85;;;64;;
84778;SDS011;75010;50.866;20.620;2024-01-11T07:20:17;83;;;63;;
84778;SDS011;75010;50.866;20.620;2024-01-11T07:30:22;86;;;66;;
84778;SDS011;75010;50.866;20.620;2024-01-11T07:40:11;89;;;66;;
84778;SDS011;75010;50.866;20.620;2024-01-11T07:50:13;89;;;69;;
84778;SDS011;75010;50.866;20.620;2024-01-11T08:00:21;89;;;69;;
84778;SDS011;75010;50.866;20.620;2024-01-11T08:10:17;91;;;70;;
84778;SDS011;75010;50.866;20.620;2024-01-11T08:20:12;87;;;66;;
84778;SDS011;75010;50.866;20.620;2024-01-11T08:30:09;86;;;65;;
84778;SDS011;75010;50.866;20.620;2024-01-11T08:40:02;93;;;68;;
84778;SDS011;75010;50.866;20.620;2024-01-11T08:50:11;89;;;69;;
84778;SDS011;75010;50.866;20.620;2024-01-11T09:00:11;89;;;69;;
84778;SDS011;75010;50.866;20.620;2024-01-11T09:10:12;92;;;70;;
84778;SDS011;75010;50.866;20.620;2024-01-11T09:20:28;90;;;68;;
84778;SDS011;75010;50.866;20.620;2024-01-11T09:30:16;89;;;68;;
84778;SDS011;75010;50.866;20.620;2024-01-11T09:40:18;86;;;66;;
84778;SDS011;75010;50.866;20.620;2024-01-11T09:50:03;87;;;65;;
84778;SDS011;75010;50.866;20.620;2024-01-11T10:00:30;93;;;66;;
84778;SDS011;75010;50.866;20.620;2024-01-11T10:10:13;93;;;66;;
84778;SDS011;75010;50.866;20.620;2024-01-11T10:20:14;93;;;66;;
84778;SDS011;75010;50.866;20.620;2024-01-11T10:30:29;87;;;67;;
84778;SDS011;75010;50.866;20.620;2024-01-11T10:40:11;87;;;67;;
84778;SDS011;75010;50.866;20.620;2024-01-11T10:50:29;95;;;69;;
84778;SDS011;75010;50.866;20.620;2024-01-11T11:00:23;95;;;69;;
84778;SDS011;75010;50.866;20.620;2024-01-11T11:10:02;94;;;69;;
84778;SDS011;75010;50.866;20.620;2024-01-11T11:20:02;93;;;71;;
84778;SDS011;75010;50.866;20.620;2024-01-11T11:30:13;93;;;71;;
84778;SDS011;75010;50.866;20.620;2024-01-11T11:40:02;86;;;65;;
84778;SDS011;75010;50.866;20.620;2024-01-11T11:50:12;86;;;65;;
84778;SDS011;75010;50.866;20.620;2024-01-11T12:00:07;87;;;65;;
84778;SDS011;75010;50.866;20.620;2024-01-11T12:10:02;87;;;64;;
84778;SDS011;75010;50.866;20.620;2024-01-11T12:20:13;90;;;68;;
84778;SDS011;75010;50.866;20.620;2024-01-11T12:30:16;90;;;68;;
84778;SDS011;75010;50.866;20.620;2024-01-11T12:40:20;79;;;60;;
84778;SDS011;75010;50.866;20.620;2024-01-11T12:50:18;80;;;60;;
84778;SDS011;75010;50.866;20.620;2024-01-11T13:00:14;80;;;60;;
84778;SDS011;75010;50.866;20.620;2024-01-11T13:10:15;71;;;54;;
84778;SDS011;75010;50.866;20.620;2024-01-11T13:20:12;72;;;56;;
84778;SDS011;75010;50.866;20.620;2024-01-11T13:30:03;75;;;53;;
84778;SDS011;75010;50.866;20.620;2024-01-11T13:40:03;75;;;53;;
84778;SDS011;75010;50.866;20.620;2024-01-11T13:50:17;72;;;55;;
84778;SDS011;75010;50.866;20.620;2024-01-11T14:00:21;69;;;54;;
84778;SDS011;75010;50.866;20.620;2024-01-11T14:10:10;63;;;48;;
84778;SDS011;75010;50.866;20.620;2024-01-11T14:20:08;63;;;48;;
84778;SDS011;75010;50.866;20.620;2024-01-11T14:30:13;71;;;54;;
84778;SDS011;75010;50.866;20.620;2024-01-11T14:40:02;68;;;53;;
84778;SDS011;75010;50.866;20.620;2024-01-11T14:50:15;68;;;53;;
84778;SDS011;75010;50.866;20.620;2024-01-11T15:00:17;71;;;53;;
84778;SDS011;75010;50.866;20.620;2024-01-11T15:10:02;68;;;53;;
84778;SDS011;75010;50.866;20.620;2024-01-11T15:20:17;69;;;53;;
84778;SDS011;75010;50.866;20.620;2024-01-11T15:30:16;69;;;53;;
84778;SDS011;75010;50.866;20.620;2024-01-11T15:40:13;62;;;48;;
84778;SDS011;75010;50.866;20.620;2024-01-11T15:50:12;63;;;49;;
84778;SDS011;75010;50.866;20.620;2024-01-11T16:00:11;63;;;49;;
84778;SDS011;75010;50.866;20.620;2024-01-11T16:10:10;62;;;47;;
84778;SDS011;75010;50.866;20.620;2024-01-11T16:20:18;59;;;47;;
84778;SDS011;75010;50.866;20.620;2024-01-11T16:30:18;59;;;47;;
84778;SDS011;75010;50.866;20.620;2024-01-11T16:40:13;59;;;46;;
84778;SDS011;75010;50.866;20.620;2024-01-11T16:50:11;62;;;46;;
84778;SDS011;75010;50.866;20.620;2024-01-11T17:00:03;60;;;47;;
84778;SDS011;75010;50.866;20.620;2024-01-11T17:10:09;56;;;44;;
84778;SDS011;75010;50.866;20.620;2024-01-11T17:20:21;55;;;43;;
84778;SDS011;75010;50.866;20.620;2024-01-11T17:30:10;55;;;43;;
84778;SDS011;75010;50.866;20.620;2024-01-11T17:40:02;55;;;43;;
84778;SDS011;75010;50.866;20.620;2024-01-11T17:50:11;56;;;42;;
84778;SDS011;75010;50.866;20.620;2024-01-11T18:00:02;56;;;42;;
84778;SDS011;75010;50.866;20.620;2024-01-11T18:10:02;51;;;40;;
84778;SDS011;75010;50.866;20.620;2024-01-11T18:20:02;51;;;41;;
84778;SDS011;75010;50.866;20.620;2024-01-11T18:30:09;50;;;38;;
84778;SDS011;75010;50.866;20.620;2024-01-11T18:40:15;53;;;39;;
84778;SDS011;75010;50.866;20.620;2024-01-11T18:50:10;53;;;39;;
84778;SDS011;75010;50.866;20.620;2024-01-11T19:00:11;43;;;35;;
84778;SDS011;75010;50.866;20.620;2024-01-11T19:10:14;48;;;37;;
84778;SDS011;75010;50.866;20.620;2024-01-11T19:20:19;44;;;35;;
84778;SDS011;75010;50.866;20.620;2024-01-11T19:30:03;37;;;32;;
84778;SDS011;75010;50.866;20.620;2024-01-11T19:40:08;42;;;34;;
84778;SDS011;75010;50.866;20.620;2024-01-11T19:50:05;43;;;34;;
84778;SDS011;75010;50.866;20.620;2024-01-11T20:00:10;37;;;31;;
84778;SDS011;75010;50.866;20.620;2024-01-11T20:10:15;37;;;31;;
84778;SDS011;75010;50.866;20.620;2024-01-11T20:20:18;29;;;26;;
84778;SDS011;75010;50.866;20.620;2024-01-11T20:30:03;37;;;29;;
84778;SDS011;75010;50.866;20.620;2024-01-11T20:40:15;35;;;27;;
84778;SDS011;75010;50.866;20.620;2024-01-11T20:50:02;39;;;31;;
84778;SDS011;75010;50.866;20.620;2024-01-11T21:00:07;39;;;31;;
84778;SDS011;75010;50.866;20.620;2024-01-11T21:10:13;31;;;27;;
84778;SDS011;75010;50.866;20.620;2024-01-11T21:20:10;32;;;25;;
84778;SDS011;75010;50.866;20.620;2024-01-11T21:30:11;29;;;24;;
84778;SDS011;75010;50.866;20.620;2024-01-11T21:40:19;33;;;27;;
84778;SDS011;75010;50.866;20.620;2024-01-11T21:50:16;30;;;26;;
84778;SDS011;75010;50.866;20.620;2024-01-11T22:00:03;31;;;29;;
84778;SDS011;75010;50.866;20.620;2024-01-11T22:10:08;31;;;29;;
84778;SDS011;75010;50.866;20.620;2024-01-11T22:20:03;31;;;26;;
84778;SDS011;75010;50.866;20.620;2024-01-11T22:30:18;35;;;30;;
84778;SDS011;75010;50.866;20.620;2024-01-11T22:40:15;29;;;25;;
84778;SDS011;75010;50.866;20.620;2024-01-11T22:50:10;31;;;28;;
84778;SDS011;75010;50.866;20.620;2024-01-11T23:00:29;31;;;28;;
84778;SDS011;75010;50.866;20.620;2024-01-11T23:10:08;34;;;27;;
84778;SDS011;75010;50.866;20.620;2024-01-11T23:20:13;28;;;25;;
84778;SDS011;75010;50.866;20.620;2024-01-11T23:30:13;24;;;21;;
84778;SDS011;75010;50.866;20.620;2024-01-11T23:40:02;23;;;21;;
84778;SDS011;75010;50.866;20.620;2024-01-11T23:50:18;19;;;22;;
